< < Back
Terminal Aerodrome Forecast


Current Version              Previous Versions:   1  2  3  4  5  6  7  8  9  

Terminal Aerodrome Forecast

980
FTUS42 KJAX 031726
TAFGNV
TAF
KGNV 031726Z 0318/0418 26010KT 4SM -SHRA BR VCTS OVC015CB
      TEMPO 0318/0320 VRB10G20KT 1SM TSRA BR BKN008 OVC015CB
     FM032000 25013KT P6SM -SHRA VCTS OVC025CB
      TEMPO 0320/0324 VRB14G24KT 4SM -TSRA OVC018CB
     FM040100 25008KT P6SM SCT025 BKN250
     FM040400 23008KT P6SM SCT025 BKN250
     FM041600 25009KT P6SM VCTS BKN035CB BKN250=



Latest METAR

181
SAUS70 KWBC 031700 RRL
MTRGNV
METAR KGNV 031653Z 25007KT 10SM FEW008 BKN027 OVC049 27/24 A2989 RMK AO2
RAB03E47 SLP120 P0007 T02670244


USA.gov is the U.S. government's official web portal to all federal, state and local government web resources and services.